createdAt,value
2018-06-30T00:01:20.614Z,3.10
2018-06-30T00:03:55.811Z,3.10
2018-06-30T00:06:30.268Z,3.40
2018-06-30T00:09:03.420Z,3.50
2018-06-30T00:11:36.548Z,3.70
2018-06-30T00:14:09.423Z,3.30
2018-06-30T00:16:42.334Z,3.10
2018-06-30T00:19:15.278Z,3.40
2018-06-30T00:21:48.234Z,3.53
2018-06-30T00:24:21.306Z,3.57
2018-06-30T00:26:57.770Z,3.77
2018-06-30T00:29:30.734Z,3.07
2018-06-30T00:32:03.743Z,3.33
2018-06-30T00:34:36.726Z,3.63
2018-06-30T00:37:09.652Z,3.00
2018-06-30T00:39:42.717Z,3.57
2018-06-30T00:42:15.642Z,3.57
2018-06-30T00:44:48.682Z,3.50
2018-06-30T00:47:21.834Z,3.93
2018-06-30T00:49:54.770Z,3.87
2018-06-30T00:52:27.893Z,3.70
2018-06-30T00:55:00.812Z,3.23
2018-06-30T00:57:33.887Z,3.73
2018-06-30T01:00:06.805Z,3.57
2018-06-30T01:02:39.728Z,3.63
2018-06-30T01:05:12.757Z,3.60
2018-06-30T01:07:45.878Z,3.30
2018-06-30T01:10:18.958Z,4.27
2018-06-30T01:12:51.834Z,4.00
2018-06-30T01:15:24.905Z,4.00
2018-06-30T01:17:57.979Z,3.77
2018-06-30T01:20:31.043Z,3.60
2018-06-30T01:23:04.041Z,3.60
2018-06-30T01:25:37.105Z,4.00
2018-06-30T01:28:10.241Z,3.73
2018-06-30T01:30:43.253Z,3.70
2018-06-30T01:33:16.115Z,4.00
2018-06-30T01:35:49.086Z,3.30
2018-06-30T01:38:22.155Z,3.63
2018-06-30T01:40:55.205Z,4.20
2018-06-30T01:43:28.123Z,4.00
2018-06-30T01:46:01.082Z,3.50
2018-06-30T01:48:34.140Z,3.00
2018-06-30T01:51:07.068Z,3.20
2018-06-30T01:53:40.050Z,3.57
2018-06-30T01:56:12.923Z,3.43
2018-06-30T01:58:46.016Z,3.30
2018-06-30T02:01:19.691Z,3.13
2018-06-30T02:03:52.810Z,3.30
2018-06-30T02:06:25.974Z,3.60
2018-06-30T02:08:58.983Z,3.57
2018-06-30T02:11:31.868Z,3.03
2018-06-30T02:14:04.874Z,2.90
2018-06-30T02:16:38.063Z,2.80
2018-06-30T02:19:11.167Z,3.07
2018-06-30T02:21:44.213Z,3.27
2018-06-30T02:24:17.162Z,3.63
2018-06-30T02:26:50.109Z,3.20
2018-06-30T02:29:23.206Z,2.90
2018-06-30T02:31:56.248Z,3.23
2018-06-30T03:11:39.565Z,3.07
2018-06-30T03:14:13.687Z,3.20
2018-06-30T03:16:53.554Z,3.13
2018-06-30T03:19:26.511Z,3.10
2018-06-30T03:22:00.764Z,3.33
2018-06-30T03:24:35.409Z,3.20
2018-06-30T03:27:09.271Z,3.00
2018-06-30T03:29:42.257Z,3.37
2018-06-30T03:32:17.197Z,2.83
2018-06-30T03:34:50.895Z,2.77
2018-06-30T03:37:24.174Z,3.20
2018-06-30T03:39:57.894Z,3.20
2018-06-30T03:42:31.074Z,3.30
2018-06-30T03:45:04.354Z,3.00
2018-06-30T03:47:37.653Z,3.13
2018-06-30T03:50:10.906Z,3.60
2018-06-30T03:52:44.230Z,3.57
2018-06-30T03:55:22.018Z,3.20
2018-06-30T03:57:55.579Z,3.27
2018-06-30T04:00:30.520Z,2.97
2018-06-30T04:03:05.211Z,3.37
2018-06-30T04:05:39.380Z,3.83
2018-06-30T04:08:12.651Z,3.40
2018-06-30T04:10:46.566Z,3.60
2018-06-30T04:13:19.921Z,2.83
2018-06-30T04:15:53.091Z,3.60
2018-06-30T04:18:26.381Z,3.30
2018-06-30T04:21:01.785Z,3.43
2018-06-30T04:23:34.987Z,3.53
2018-06-30T04:26:09.167Z,3.50
2018-06-30T04:36:58.874Z,4.37
2018-06-30T04:39:32.234Z,4.80
2018-06-30T04:42:05.615Z,4.03
2018-06-30T04:44:38.744Z,3.70
2018-06-30T04:47:12.796Z,3.37
2018-06-30T04:49:46.993Z,3.40
2018-06-30T04:52:21.191Z,3.37
2018-06-30T04:54:55.317Z,3.27
2018-06-30T04:57:29.891Z,3.30
2018-06-30T05:00:05.493Z,3.60
2018-06-30T05:02:39.415Z,3.20
2018-06-30T05:05:13.474Z,3.03
2018-06-30T05:07:48.642Z,3.57
2018-06-30T05:10:22.686Z,3.57
2018-06-30T05:12:56.827Z,3.40
2018-06-30T05:15:30.787Z,3.63
2018-06-30T05:18:04.955Z,3.50
2018-06-30T05:20:38.854Z,3.23
2018-06-30T05:23:15.323Z,3.00
2018-06-30T05:25:49.160Z,3.27
2018-06-30T05:28:23.100Z,2.83
2018-06-30T05:30:58.292Z,3.10
2018-06-30T05:33:33.425Z,3.20
2018-06-30T05:36:07.497Z,3.33
2018-06-30T05:38:41.326Z,3.40
2018-06-30T05:41:15.023Z,3.43
2018-06-30T05:43:48.681Z,3.00
2018-06-30T05:46:23.400Z,3.00
2018-06-30T05:48:56.825Z,2.83
2018-06-30T05:51:30.157Z,3.00
2018-06-30T05:54:03.615Z,2.47
2018-06-30T05:56:37.041Z,2.97
2018-06-30T05:59:10.547Z,3.00
2018-06-30T06:01:44.249Z,2.63
2018-06-30T06:04:17.652Z,2.83
2018-06-30T06:06:51.745Z,3.20
2018-06-30T06:09:24.967Z,3.13
2018-06-30T06:12:03.269Z,2.70
2018-06-30T06:14:36.658Z,2.53
2018-06-30T06:17:10.417Z,2.80
2018-06-30T06:19:43.806Z,2.90
2018-06-30T06:22:17.597Z,3.07
2018-06-30T06:24:50.826Z,2.90
2018-06-30T06:27:24.283Z,2.73
2018-06-30T06:29:58.011Z,2.73
2018-06-30T06:32:31.488Z,2.87
2018-06-30T06:35:04.882Z,2.87
2018-06-30T06:37:41.968Z,2.67
2018-06-30T06:40:21.331Z,2.30
2018-06-30T06:42:55.348Z,2.80
2018-06-30T06:45:28.633Z,2.27
2018-06-30T06:48:02.100Z,2.40
2018-06-30T06:50:35.642Z,2.73
2018-06-30T06:53:09.183Z,2.50
2018-06-30T06:55:42.538Z,2.30
2018-06-30T06:58:15.957Z,2.77
2018-06-30T07:00:49.215Z,2.37
2018-06-30T07:03:24.220Z,3.07
2018-06-30T07:05:57.571Z,2.70
2018-06-30T07:08:30.809Z,2.73
2018-06-30T07:11:04.439Z,3.00
2018-06-30T07:13:37.685Z,2.93
2018-06-30T07:16:11.760Z,2.70
2018-06-30T07:18:44.983Z,3.37
2018-06-30T07:21:18.029Z,3.43
2018-06-30T07:23:51.387Z,3.00
2018-06-30T07:26:25.642Z,3.07
2018-06-30T07:28:58.724Z,2.93
2018-06-30T07:31:32.097Z,2.57
2018-06-30T07:34:05.455Z,2.67
2018-06-30T07:36:38.779Z,2.83
2018-06-30T07:39:13.153Z,2.93
2018-06-30T07:41:46.295Z,3.23
2018-06-30T07:44:19.406Z,2.77
2018-06-30T15:36:31.763Z,3.00
2018-06-30T15:39:06.430Z,2.90
2018-06-30T15:41:43.866Z,2.80
2018-06-30T15:44:18.451Z,2.90
2018-06-30T15:46:55.703Z,2.73
2018-06-30T15:49:30.321Z,2.67
2018-06-30T15:52:05.193Z,2.70
2018-06-30T15:54:38.275Z,3.13
2018-06-30T15:57:11.356Z,2.57
2018-06-30T15:59:44.588Z,2.53
2018-06-30T16:02:18.265Z,2.70
2018-06-30T16:04:51.458Z,2.70
2018-06-30T16:07:24.609Z,2.70
2018-06-30T16:09:57.787Z,2.90
2018-06-30T16:12:30.918Z,2.80
2018-06-30T16:15:04.198Z,2.60
2018-06-30T16:17:37.624Z,2.80
2018-06-30T16:20:10.888Z,2.63
2018-06-30T16:22:43.994Z,2.43
2018-06-30T16:25:17.052Z,3.40
2018-06-30T16:27:50.122Z,2.80
2018-06-30T16:30:23.266Z,2.90
2018-06-30T16:32:56.430Z,3.00
2018-06-30T16:35:29.660Z,3.10
2018-06-30T16:38:03.084Z,3.10
2018-06-30T16:40:36.145Z,3.00
2018-06-30T16:43:09.213Z,3.00
2018-06-30T16:45:42.568Z,3.10
2018-06-30T16:48:15.693Z,2.80
2018-06-30T16:50:48.893Z,3.13
2018-06-30T16:53:22.030Z,3.40
2018-06-30T16:55:55.039Z,3.60
2018-06-30T16:58:28.191Z,3.83
2018-06-30T17:01:01.384Z,3.60
2018-06-30T17:03:34.604Z,3.90
2018-06-30T17:06:07.971Z,3.70
2018-06-30T17:08:40.958Z,4.13
2018-06-30T17:11:14.099Z,4.10
2018-06-30T17:13:47.338Z,4.20
2018-06-30T17:16:20.580Z,4.10
2018-06-30T17:18:53.674Z,4.40
2018-06-30T17:21:26.738Z,4.33
2018-06-30T17:24:00.056Z,3.80
2018-06-30T17:26:33.267Z,3.97
2018-06-30T17:29:06.289Z,3.93
2018-06-30T17:31:39.458Z,4.30
2018-06-30T17:34:13.166Z,4.00
2018-06-30T17:36:46.364Z,4.00
2018-06-30T17:39:19.331Z,4.17
2018-06-30T17:41:53.400Z,3.50
2018-06-30T17:44:27.480Z,4.27
2018-06-30T17:47:01.580Z,3.77
2018-06-30T17:52:20.485Z,3.50
2018-06-30T17:54:54.679Z,2.97
2018-06-30T17:57:27.911Z,8.47
2018-06-30T18:00:03.178Z,3.10
2018-06-30T18:02:36.666Z,3.50
2018-06-30T18:05:10.854Z,3.40
2018-06-30T18:07:45.480Z,3.10
2018-06-30T18:10:24.708Z,3.23
2018-06-30T18:12:59.228Z,3.23
2018-06-30T18:15:40.612Z,2.90
2018-06-30T18:18:15.105Z,3.10
2018-06-30T18:20:50.958Z,3.30
2018-06-30T18:23:26.132Z,2.90
2018-06-30T18:25:59.458Z,2.80
2018-06-30T18:28:32.683Z,2.47
2018-06-30T18:31:05.792Z,2.70
2018-06-30T18:33:38.853Z,2.93
2018-06-30T18:36:12.147Z,2.20
2018-06-30T18:38:54.525Z,2.63
2018-06-30T18:41:28.834Z,2.73
2018-06-30T18:44:01.980Z,2.50
2018-06-30T18:46:35.131Z,2.80
2018-06-30T18:49:08.285Z,2.80
2018-06-30T18:51:41.731Z,2.80
2018-06-30T18:54:14.920Z,2.30
2018-06-30T18:56:48.042Z,2.40
2018-06-30T18:59:21.057Z,2.67
2018-06-30T19:01:54.193Z,2.70
2018-06-30T19:04:27.329Z,2.80
2018-06-30T19:07:03.653Z,2.90
2018-06-30T19:09:36.837Z,2.97
2018-06-30T19:12:10.144Z,2.53
2018-06-30T19:14:43.388Z,2.40
2018-06-30T19:17:16.577Z,2.50
2018-06-30T19:19:50.004Z,2.97
2018-06-30T19:22:23.198Z,2.87
2018-06-30T19:24:57.262Z,2.70
2018-06-30T19:27:30.539Z,2.20
2018-06-30T19:30:03.661Z,2.00
2018-06-30T19:32:36.803Z,2.23
2018-06-30T19:35:09.871Z,1.93
2018-06-30T19:37:43.015Z,2.20
2018-06-30T19:40:16.048Z,2.20
2018-06-30T19:42:49.190Z,2.10
2018-06-30T19:45:22.212Z,2.47
2018-06-30T19:47:56.166Z,2.33
2018-06-30T19:50:29.509Z,1.80
2018-06-30T19:53:02.737Z,1.80
2018-06-30T19:55:35.828Z,1.83
2018-06-30T19:58:09.024Z,2.20
2018-06-30T20:00:42.265Z,2.20
2018-06-30T20:03:16.055Z,2.10
2018-06-30T20:05:49.344Z,2.33
2018-06-30T20:08:22.681Z,1.90
2018-06-30T20:10:55.835Z,1.93
2018-06-30T20:13:28.965Z,1.70
2018-06-30T20:16:02.395Z,1.77
2018-06-30T20:18:41.762Z,2.13
2018-06-30T20:21:15.032Z,2.10
2018-06-30T20:23:58.279Z,2.07
2018-06-30T20:26:34.742Z,2.13
2018-06-30T20:29:09.404Z,2.00
2018-06-30T20:31:42.632Z,2.37
2018-06-30T20:34:18.042Z,1.73
2018-06-30T20:36:51.262Z,1.73
2018-06-30T20:39:25.578Z,1.60
2018-06-30T20:41:58.822Z,2.07
2018-06-30T20:44:32.170Z,1.40
2018-06-30T20:47:05.429Z,1.70
2018-06-30T20:49:38.765Z,1.50
2018-06-30T20:52:11.973Z,1.37
2018-06-30T20:54:45.488Z,1.73
2018-06-30T20:57:18.862Z,1.43
2018-06-30T20:59:52.079Z,1.30
2018-06-30T21:02:25.246Z,1.30
2018-06-30T21:04:58.349Z,1.40
2018-06-30T21:07:31.413Z,1.40
2018-06-30T21:10:04.512Z,1.30
2018-06-30T21:12:37.538Z,1.43
2018-06-30T21:15:10.576Z,1.50
2018-06-30T21:17:43.693Z,1.27
2018-06-30T21:20:16.735Z,1.50
2018-06-30T21:22:51.288Z,1.50
2018-06-30T21:25:24.626Z,1.43
2018-06-30T21:27:58.418Z,1.40
2018-06-30T21:30:31.990Z,1.40
2018-06-30T21:33:05.601Z,1.83
2018-06-30T21:35:50.324Z,1.70
2018-06-30T21:38:24.132Z,1.87
2018-06-30T21:40:57.390Z,1.90
2018-06-30T21:43:30.905Z,1.40
2018-06-30T21:46:04.553Z,2.07
2018-06-30T21:48:38.302Z,1.67
2018-06-30T21:51:11.739Z,2.00
2018-06-30T21:53:45.414Z,1.60
2018-06-30T21:56:18.997Z,1.83
2018-06-30T21:58:53.145Z,1.60
2018-06-30T22:01:27.822Z,1.80
2018-06-30T22:04:01.502Z,1.63
2018-06-30T22:06:35.668Z,2.00
2018-06-30T22:09:12.543Z,1.60
2018-06-30T22:11:45.935Z,1.57
2018-06-30T22:14:19.772Z,1.53
2018-06-30T22:16:53.333Z,1.60
2018-06-30T22:19:27.182Z,1.27
2018-06-30T22:22:01.109Z,2.00
2018-06-30T22:24:35.116Z,1.70
2018-06-30T22:27:08.879Z,1.93
2018-06-30T22:29:42.167Z,1.90
2018-06-30T22:32:15.803Z,1.57
2018-06-30T22:34:49.571Z,1.90
2018-06-30T22:37:23.015Z,1.77
2018-06-30T22:40:05.265Z,1.57
2018-06-30T22:42:38.634Z,1.70
2018-06-30T22:45:12.359Z,1.80
2018-06-30T22:47:46.161Z,1.73
2018-06-30T22:50:20.825Z,1.50
2018-06-30T22:52:55.040Z,2.13
2018-06-30T22:55:28.720Z,1.97
2018-06-30T22:58:02.489Z,1.70
2018-06-30T23:00:36.250Z,2.07
2018-06-30T23:03:14.619Z,1.80
2018-06-30T23:05:48.191Z,1.50
2018-06-30T23:08:21.618Z,1.60
2018-06-30T23:10:54.812Z,1.70
2018-06-30T23:13:27.909Z,1.60
2018-06-30T23:16:00.963Z,1.43
2018-06-30T23:18:34.220Z,1.37
2018-06-30T23:21:07.337Z,1.40
2018-06-30T23:23:40.524Z,1.20
2018-06-30T23:26:13.563Z,1.47
2018-06-30T23:28:46.871Z,1.10
2018-06-30T23:31:20.012Z,1.60
2018-06-30T23:34:26.940Z,1.33
2018-06-30T23:37:00.163Z,1.43
2018-06-30T23:39:33.327Z,1.60
2018-06-30T23:42:06.386Z,1.00
2018-06-30T23:44:39.638Z,1.23
2018-06-30T23:47:12.860Z,1.47
2018-06-30T23:49:46.001Z,1.37
2018-06-30T23:52:19.266Z,1.20
2018-06-30T23:54:52.286Z,1.20
2018-06-30T23:57:25.560Z,1.10
2018-06-30T23:59:58.719Z,1.00
